NDF38 LROP-LRSM
Flight info
| Callsign | NDF38 |
|---|---|
| Flight time | 0h 41m |
| Altitude | 32000 |
| Route | BUKEL1K BUKEL DCT EDETA DCT ANAVU/N0343F100 T90 JIBOU DCT |
| Aircraft | A320/M-SDE3FGHIRWY/LB1 |
Departure
| Time | 2026-05-04 17:00 |
|---|---|
| Airport | Bucharest Henri Coandă International Airport (LROP) |
Arrival
| Time | 2026-05-04 17:41 |
|---|---|
| Airport | Satu Mare International Airport (LRSM) |
| Time | Latitude | Longitude | Altitude | Speed | Heading |
|---|---|---|---|---|---|
| 2026-05-04 16:21 | 44.56971 | 26.10161 | 323 ft | 0 kts | 204° |
| 2026-05-04 16:45 | 44.56970 | 26.10160 | 322 ft | 0 kts | 204° |
| 2026-05-04 16:46 | 44.56948 | 26.10147 | 322 ft | 2 kts | 203° |
| 2026-05-04 16:46 | 44.56935 | 26.10139 | 322 ft | 0 kts | 203° |
| 2026-05-04 16:53 | 44.56934 | 26.10139 | 322 ft | 1 kts | 204° |
| 2026-05-04 16:53 | 44.56922 | 26.10062 | 322 ft | 5 kts | 263° |
| 2026-05-04 16:54 | 44.56917 | 26.10000 | 322 ft | 7 kts | 263° |
| 2026-05-04 16:55 | 44.57170 | 26.09890 | 321 ft | 14 kts | 354° |
| 2026-05-04 16:55 | 44.57379 | 26.09860 | 322 ft | 16 kts | 354° |
| 2026-05-04 16:56 | 44.57589 | 26.09760 | 322 ft | 18 kts | 271° |
| 2026-05-04 16:56 | 44.57551 | 26.09269 | 322 ft | 18 kts | 264° |
| 2026-05-04 16:57 | 44.57536 | 26.09087 | 322 ft | 20 kts | 263° |
| 2026-05-04 16:57 | 44.57506 | 26.08686 | 323 ft | 18 kts | 264° |
| 2026-05-04 16:58 | 44.57670 | 26.08549 | 324 ft | 16 kts | 79° |
| 2026-05-04 16:58 | 44.57690 | 26.08825 | 322 ft | 57 kts | 84° |
| 2026-05-04 16:59 | 44.57856 | 26.11045 | 322 ft | 161 kts | 84° |
| 2026-05-04 17:00 | 44.58473 | 26.18907 | 2666 ft | 208 kts | 80° |
| 2026-05-04 17:00 | 44.59007 | 26.25573 | 4331 ft | 257 kts | 81° |
| 2026-05-04 17:01 | 44.59337 | 26.30588 | 6191 ft | 260 kts | 79° |
| 2026-05-04 17:01 | 44.60358 | 26.35336 | 7847 ft | 254 kts | 47° |
| 2026-05-04 17:02 | 44.63402 | 26.37505 | 9469 ft | 260 kts | 4° |
| 2026-05-04 17:02 | 44.66769 | 26.35417 | 10777 ft | 293 kts | 320° |
| 2026-05-04 17:03 | 44.68244 | 26.33279 | 10974 ft | 317 kts | 319° |
| 2026-05-04 17:03 | 44.69800 | 26.30928 | 11143 ft | 340 kts | 317° |
| 2026-05-04 17:03 | 44.73074 | 26.25868 | 12151 ft | 355 kts | 317° |
| 2026-05-04 17:04 | 44.76446 | 26.20665 | 13397 ft | 364 kts | 317° |
| 2026-05-04 17:04 | 44.79898 | 26.15393 | 14563 ft | 373 kts | 317° |
| 2026-05-04 17:05 | 44.83449 | 26.09987 | 15683 ft | 379 kts | 317° |
| 2026-05-04 17:05 | 44.87056 | 26.04484 | 16793 ft | 385 kts | 317° |
| 2026-05-04 17:06 | 44.90721 | 25.98885 | 17890 ft | 392 kts | 317° |
| 2026-05-04 17:06 | 44.92575 | 25.96041 | 18432 ft | 395 kts | 317° |
| 2026-05-04 17:07 | 44.96288 | 25.90325 | 19480 ft | 400 kts | 316° |
| 2026-05-04 17:07 | 44.97562 | 25.88367 | 19848 ft | 401 kts | 316° |
| 2026-05-04 17:07 | 45.00059 | 25.84517 | 20583 ft | 402 kts | 315° |
| 2026-05-04 17:07 | 45.01950 | 25.81599 | 21132 ft | 403 kts | 315° |
| 2026-05-04 17:08 | 45.03844 | 25.78671 | 21656 ft | 404 kts | 314° |
| 2026-05-04 17:08 | 45.07674 | 25.72826 | 22632 ft | 406 kts | 317° |
| 2026-05-04 17:08 | 45.09834 | 25.70254 | 23118 ft | 407 kts | 322° |
| 2026-05-04 17:09 | 45.12050 | 25.67755 | 23617 ft | 408 kts | 322° |
| 2026-05-04 17:09 | 45.14243 | 25.65276 | 24003 ft | 410 kts | 322° |
| 2026-05-04 17:09 | 45.16476 | 25.62744 | 24367 ft | 412 kts | 321° |
| 2026-05-04 17:10 | 45.20977 | 25.57612 | 25043 ft | 418 kts | 321° |
| 2026-05-04 17:10 | 45.27828 | 25.49808 | 26078 ft | 424 kts | 320° |
| 2026-05-04 17:11 | 45.30139 | 25.47175 | 26405 ft | 427 kts | 320° |
| 2026-05-04 17:11 | 45.32459 | 25.44528 | 26784 ft | 429 kts | 320° |
| 2026-05-04 17:11 | 45.37106 | 25.39211 | 27408 ft | 434 kts | 319° |
| 2026-05-04 17:12 | 45.39463 | 25.36502 | 27771 ft | 436 kts | 319° |
| 2026-05-04 17:12 | 45.44197 | 25.31054 | 28550 ft | 438 kts | 319° |
| 2026-05-04 17:13 | 45.51303 | 25.22861 | 29874 ft | 437 kts | 318° |
| 2026-05-04 17:14 | 45.58318 | 25.14747 | 31254 ft | 431 kts | 318° |
| 2026-05-04 17:14 | 45.60641 | 25.12059 | 31755 ft | 429 kts | 319° |
| 2026-05-04 17:14 | 45.65309 | 25.06648 | 32082 ft | 437 kts | 319° |
| 2026-05-04 17:15 | 45.67680 | 25.03892 | 32070 ft | 441 kts | 319° |
| 2026-05-04 17:16 | 45.77219 | 24.92760 | 32073 ft | 443 kts | 321° |
| 2026-05-04 17:17 | 45.87129 | 24.82346 | 32067 ft | 443 kts | 324° |
| 2026-05-04 17:18 | 45.97130 | 24.71992 | 32053 ft | 443 kts | 324° |
| 2026-05-04 17:19 | 46.07036 | 24.61539 | 32056 ft | 443 kts | 324° |
| 2026-05-04 17:20 | 46.16963 | 24.51025 | 32045 ft | 443 kts | 325° |
| 2026-05-04 17:20 | 46.24365 | 24.43163 | 32046 ft | 442 kts | 324° |
| 2026-05-04 17:21 | 46.34267 | 24.32596 | 32048 ft | 442 kts | 324° |
| 2026-05-04 17:22 | 46.39215 | 24.27306 | 32053 ft | 442 kts | 324° |
| 2026-05-04 17:23 | 46.46637 | 24.19344 | 31793 ft | 443 kts | 324° |
| 2026-05-04 17:23 | 46.49077 | 24.16716 | 31547 ft | 443 kts | 324° |
| 2026-05-04 17:23 | 46.54028 | 24.11373 | 31046 ft | 444 kts | 324° |
| 2026-05-04 17:24 | 46.56510 | 24.08698 | 30685 ft | 444 kts | 324° |
| 2026-05-04 17:24 | 46.64081 | 24.00514 | 27555 ft | 455 kts | 324° |
| 2026-05-04 17:25 | 46.66598 | 23.97781 | 26998 ft | 448 kts | 325° |
| 2026-05-04 17:25 | 46.70711 | 23.93308 | 25852 ft | 440 kts | 325° |
| 2026-05-04 17:26 | 46.75573 | 23.87998 | 24525 ft | 433 kts | 325° |
| 2026-05-04 17:26 | 46.83469 | 23.79387 | 22297 ft | 418 kts | 326° |
| 2026-05-04 17:27 | 46.88065 | 23.74348 | 21045 ft | 408 kts | 326° |
| 2026-05-04 17:27 | 46.91805 | 23.70241 | 20077 ft | 401 kts | 326° |
| 2026-05-04 17:28 | 46.96226 | 23.65381 | 18971 ft | 394 kts | 326° |
| 2026-05-04 17:29 | 47.02703 | 23.58218 | 17373 ft | 382 kts | 326° |
| 2026-05-04 17:29 | 47.08954 | 23.51309 | 15791 ft | 369 kts | 326° |
| 2026-05-04 17:30 | 47.15014 | 23.44591 | 14148 ft | 363 kts | 326° |
| 2026-05-04 17:31 | 47.19024 | 23.40138 | 12960 ft | 359 kts | 325° |
| 2026-05-04 17:31 | 47.24935 | 23.33546 | 11237 ft | 353 kts | 324° |
| 2026-05-04 17:32 | 47.28960 | 23.29833 | 10749 ft | 331 kts | 332° |
| 2026-05-04 17:33 | 47.34638 | 23.24961 | 10360 ft | 300 kts | 331° |
| 2026-05-04 17:33 | 47.36422 | 23.23427 | 10207 ft | 293 kts | 332° |
| 2026-05-04 17:34 | 47.41743 | 23.18868 | 9524 ft | 297 kts | 331° |
| 2026-05-04 17:34 | 47.43499 | 23.17359 | 9138 ft | 297 kts | 331° |
| 2026-05-04 17:35 | 47.48471 | 23.12182 | 8151 ft | 292 kts | 306° |
| 2026-05-04 17:35 | 47.49760 | 23.06442 | 7081 ft | 303 kts | 277° |
| 2026-05-04 17:35 | 47.50048 | 23.03354 | 6659 ft | 304 kts | 277° |
| 2026-05-04 17:36 | 47.50346 | 23.00261 | 6229 ft | 304 kts | 277° |
| 2026-05-04 17:36 | 47.50645 | 22.97206 | 5807 ft | 304 kts | 278° |
| 2026-05-04 17:36 | 47.50958 | 22.94125 | 5387 ft | 303 kts | 279° |
| 2026-05-04 17:36 | 47.51366 | 22.91071 | 4914 ft | 303 kts | 282° |
| 2026-05-04 17:37 | 47.51842 | 22.88036 | 4463 ft | 303 kts | 283° |
| 2026-05-04 17:37 | 47.52492 | 22.85091 | 3939 ft | 303 kts | 298° |
| 2026-05-04 17:37 | 47.53980 | 22.82879 | 3402 ft | 308 kts | 331° |
| 2026-05-04 17:37 | 47.56014 | 22.82159 | 3084 ft | 298 kts | 2° |
| 2026-05-04 17:38 | 47.57912 | 22.83073 | 2728 ft | 284 kts | 34° |
| 2026-05-04 17:38 | 47.59404 | 22.84886 | 2376 ft | 270 kts | 35° |
| 2026-05-04 17:38 | 47.61055 | 22.85823 | 2050 ft | 250 kts | 3° |
| 2026-05-04 17:38 | 47.62698 | 22.85984 | 1745 ft | 225 kts | 7° |
| 2026-05-04 17:39 | 47.65481 | 22.86895 | 1224 ft | 182 kts | 12° |
| 2026-05-04 17:39 | 47.66621 | 22.87286 | 990 ft | 157 kts | 11° |
| 2026-05-04 17:39 | 47.67652 | 22.87638 | 763 ft | 148 kts | 12° |
| 2026-05-04 17:40 | 47.68640 | 22.87977 | 552 ft | 144 kts | 12° |
| 2026-05-04 17:40 | 47.69611 | 22.88312 | 417 ft | 138 kts | 8° |
| 2026-05-04 17:40 | 47.70432 | 22.88597 | 405 ft | 99 kts | 14° |
| 2026-05-04 17:40 | 47.70933 | 22.88755 | 405 ft | 51 kts | 13° |
| 2026-05-04 17:41 | 47.71206 | 22.88849 | 405 ft | 34 kts | 16° |
| 2026-05-04 17:41 | 47.71328 | 22.88907 | 406 ft | 13 kts | 39° |
| 2026-05-04 17:41 | 47.71405 | 22.88949 | 404 ft | 9 kts | 329° |
| 2026-05-04 17:41 | 47.71379 | 22.88911 | 407 ft | 8 kts | 193° |
| 2026-05-04 17:42 | 47.71312 | 22.88888 | 400 ft | 12 kts | 192° |
| 2026-05-04 17:42 | 47.71218 | 22.88857 | 405 ft | 15 kts | 192° |
| 2026-05-04 17:42 | 47.71146 | 22.88834 | 405 ft | 17 kts | 192° |
| 2026-05-04 17:42 | 47.71132 | 22.88829 | 405 ft | 17 kts | 192° |
| 2026-05-04 17:43 | 47.71005 | 22.88788 | 406 ft | 20 kts | 192° |
| 2026-05-04 17:43 | 47.70861 | 22.88739 | 406 ft | 22 kts | 194° |
| 2026-05-04 17:43 | 47.70715 | 22.88688 | 407 ft | 20 kts | 194° |
| 2026-05-04 17:43 | 47.70591 | 22.88630 | 406 ft | 16 kts | 221° |
| 2026-05-04 17:44 | 47.70589 | 22.88464 | 407 ft | 14 kts | 280° |
| 2026-05-04 17:44 | 47.70597 | 22.88406 | 407 ft | 1 kts | 285° |
| 2026-05-04 17:44 | 47.70601 | 22.88386 | 403 ft | 3 kts | 285° |
| 2026-05-04 17:44 | 47.70615 | 22.88351 | 407 ft | 5 kts | 308° |
| 2026-05-04 17:45 | 47.70646 | 22.88346 | 407 ft | 5 kts | 4° |
| 2026-05-04 17:45 | 47.70656 | 22.88350 | 407 ft | 0 kts | 17° |